Newcastle, NE

2:31 AM CDT on September 03, 2014 (GMT -0500)
Wayne Municipal | Change Station
CLOSE
Current Station
Airport
Location: Wayne,
Elevation: 1430 ft
Nearby Weather Stations

Elev 1430 ft 42.24 °N, 96.98 °W | Updated 16 minutes ago

Clear
Clear
63 °F
Feels Like 63 °F
N
9
Wind Variable Wind from SSE

Today
High -- | Low -- °F
--% Chance of Precip.
Yesterday
High -- | Low -- °F
Precip. -- in
6:54 AM 7:58 PM
First Quarter, 59% visible
Pressure 29.88 in
Visibility 10.0 miles
Clouds Clear
Dew Point 59 °F
Humidity 86%
Rainfall 0.00 in
Snow Depth Not available.
UV 0 out of 12
Pollen 9.20 out of 12
Air Quality Not available.
Flu Activity Not available.
METAR KLCG 030715Z AUTO 16008KT 10SM CLR 17/15 A2988 RMK AO2 T01730150

More Conditions Fewer Conditions

Pressure 29.88 in
Visibility 10.0 miles
Clouds Clear
Dew Point 59 °F
Humidity 86%
Rainfall 0.00 in
Snow Depth Not available.
UV 0 out of 12
Pollen 9.20 out of 12
Air Quality Not available.
Flu Activity Not available.
METAR KLCG 030715Z AUTO 16008KT 10SM CLR 17/15 A2988 RMK AO2 T01730150

More Conditions Fewer Conditions

10-Day Weather Forecast

Almanac

Astronomy

Sep. 03, 2014 Rise Set
Actual Time 6:54 AM CDT 7:58 PM CDT
Civil Twilight 6:25 AM CDT 8:27 PM CDT
Nautical Twilight 5:51 AM CDT 9:01 PM CDT
Astronomical Twilight 5:14 AM CDT 9:37 PM CDT
Moon 3:45 PM CDT 12:45 AM CDT
Length of Visible Light 14h 01m
Length of Day
13h 03m
Tomorrow will be 2m 48s shorter.
First Quarter, 59% of the Moon is Illuminated
Today
First Quarter
Sep 8
Full
Sep 15
Last Quarter
Sep 24
New
Oct 1
First Quarter

Today's Extremes

State Highs State Lows

Community

WunderPhotos

Upload Photos

1,749,891 photos uploaded!

Nearby

Snow Depth

Station Depth Elevation
No new snow has been reported.

Earthquake Activity

City Distance Mag. Time & Date
No recent earthquake activity has been reported nearby.
Minimum magnitude displayed is 2.5.

Coastal Water Temperatures

Place Temperature
No Stations Reporting

Nearby Weather Stations